Time;durP1;ratioP1;P1;durP2;ratioP2;P2;SDS_P1;SDS_P2;PMS_P1;PMS_P2;Temp;Humidity;BMP_temperature;BMP_pressure;BME280_temperature;BME280_humidity;BME280_pressure;Samples;Min_cycle;Max_cycle;Signal;HPM_P1;HPM_P2
2024/03/23 00:01:56;;;;;;;9.07;7.03;;;12.60;99.90;;;;;;5103371;28;20405;-60
2024/03/23 00:04:23;;;;;;;10.70;7.90;;;12.60;99.90;;;;;;5111270;28;20421;-61
2024/03/23 00:06:50;;;;;;;11.30;7.93;;;12.60;99.90;;;;;;5113011;28;20421;-61
2024/03/23 00:09:16;;;;;;;10.80;7.07;;;12.60;99.90;;;;;;5112595;28;20450;-61
2024/03/23 00:11:43;;;;;;;7.90;7.10;;;12.50;99.90;;;;;;5114906;28;20455;-61
2024/03/23 00:14:09;;;;;;;8.53;6.37;;;12.50;99.90;;;;;;5079967;28;20488;-61
2024/03/23 00:16:36;;;;;;;9.70;6.23;;;12.50;99.90;;;;;;5097508;28;20423;-61
2024/03/23 00:19:03;;;;;;;9.50;5.57;;;12.40;99.90;;;;;;5093942;28;20481;-60
2024/03/23 00:21:29;;;;;;;8.50;6.60;;;12.40;99.90;;;;;;5113390;28;20425;-60
2024/03/23 00:23:56;;;;;;;7.83;6.70;;;12.40;99.90;;;;;;5113001;28;20420;-60
2024/03/23 00:26:22;;;;;;;9.80;6.53;;;12.40;99.90;;;;;;5114195;28;20393;-61
2024/03/23 00:28:50;;;;;;;9.77;6.30;;;12.30;99.90;;;;;;5112781;28;20434;-60
2024/03/23 00:31:16;;;;;;;11.33;6.77;;;12.30;99.90;;;;;;5111700;28;20935;-60
2024/03/23 00:33:43;;;;;;;11.33;6.10;;;12.30;99.90;;;;;;5114147;28;20986;-60
2024/03/23 00:36:10;;;;;;;8.87;6.03;;;12.30;99.90;;;;;;5105633;28;20417;-60
2024/03/23 00:38:39;;;;;;;11.40;6.10;;;12.30;99.90;;;;;;5112905;28;20450;-61
2024/03/23 00:41:06;;;;;;;9.87;6.00;;;12.30;99.90;;;;;;5114361;28;20411;-60
2024/03/23 00:43:32;;;;;;;11.00;6.40;;;12.20;99.90;;;;;;5110389;28;20798;-60
2024/03/23 00:45:59;;;;;;;9.67;6.37;;;12.20;99.90;;;;;;5097049;28;20422;-60
2024/03/23 00:48:26;;;;;;;10.60;6.33;;;12.20;99.90;;;;;;5113363;28;20785;-60
2024/03/23 00:50:52;;;;;;;8.57;7.10;;;12.10;99.90;;;;;;5112166;28;20459;-60
2024/03/23 00:53:19;;;;;;;12.27;5.77;;;12.10;99.90;;;;;;5111653;28;20778;-60
2024/03/23 00:55:44;;;;;;;11.90;6.27;;;12.10;99.90;;;;;;5114076;28;20423;-60
2024/03/23 00:58:10;;;;;;;8.13;6.17;;;12.10;99.90;;;;;;5109813;28;20427;-60
2024/03/23 01:00:36;;;;;;;12.60;6.00;;;12.10;99.90;;;;;;5112066;28;20174;-60
2024/03/23 01:03:02;;;;;;;5.83;5.00;;;12.00;99.90;;;;;;5093610;28;20584;-61
2024/03/23 01:05:28;;;;;;;9.63;4.97;;;12.00;99.90;;;;;;5102278;28;20181;-61
2024/03/23 01:07:53;;;;;;;7.27;5.27;;;12.00;99.90;;;;;;5112115;28;20169;-60
2024/03/23 01:10:19;;;;;;;4.80;4.40;;;12.00;99.90;;;;;;5112978;28;20207;-61
2024/03/23 01:12:45;;;;;;;5.17;4.70;;;12.00;99.90;;;;;;5112128;28;20181;-60
2024/03/23 01:15:10;;;;;;;6.27;5.27;;;12.00;99.90;;;;;;5093814;28;20204;-60
2024/03/23 01:17:36;;;;;;;11.67;3.90;;;11.90;99.90;;;;;;5113657;28;20168;-60
2024/03/23 01:20:02;;;;;;;8.33;4.70;;;11.90;99.90;;;;;;5097828;28;20418;-60
2024/03/23 01:22:28;;;;;;;5.70;4.43;;;11.90;99.90;;;;;;5096905;28;20206;-60
2024/03/23 01:24:54;;;;;;;8.90;5.00;;;11.90;99.90;;;;;;5113482;28;20390;-60
2024/03/23 01:27:19;;;;;;;5.33;4.90;;;11.90;99.90;;;;;;5110895;28;20183;-60
2024/03/23 01:29:45;;;;;;;4.67;4.27;;;11.90;99.90;;;;;;5110064;28;20556;-61
2024/03/23 01:32:11;;;;;;;6.13;4.33;;;12.00;99.90;;;;;;5113365;28;20229;-60
2024/03/23 01:34:37;;;;;;;8.40;4.53;;;12.00;99.90;;;;;;5110753;28;20177;-60
2024/03/23 01:37:02;;;;;;;7.23;5.00;;;11.90;99.90;;;;;;5110591;28;20222;-60
2024/03/23 01:39:28;;;;;;;7.90;4.73;;;11.80;99.90;;;;;;5111140;28;20569;-60
2024/03/23 01:41:54;;;;;;;5.57;5.07;;;11.80;99.90;;;;;;5111637;28;20183;-60
2024/03/23 01:44:19;;;;;;;5.60;4.37;;;11.70;99.90;;;;;;5110410;28;20166;-60
2024/03/23 01:46:45;;;;;;;5.27;4.30;;;11.80;99.90;;;;;;5097324;28;20174;-60
2024/03/23 01:49:12;;;;;;;7.60;4.60;;;11.80;99.90;;;;;;5101871;28;20187;-60
2024/03/23 01:51:38;;;;;;;6.70;5.77;;;11.70;99.90;;;;;;5106418;28;20204;-60
2024/03/23 01:54:04;;;;;;;6.43;5.20;;;11.70;99.90;;;;;;5085369;28;20444;-60
2024/03/23 01:56:35;;;;;;;6.00;4.63;;;11.80;99.90;;;;;;5090427;28;20181;-60
2024/03/23 01:59:07;;;;;;;6.50;4.17;;;11.70;99.90;;;;;;5091907;28;20413;-60
2024/03/23 02:01:36;;;;;;;5.60;3.43;;;11.70;99.90;;;;;;5109080;28;20796;-60
2024/03/23 02:04:01;;;;;;;6.90;4.30;;;11.70;99.90;;;;;;5101645;28;20431;-60
2024/03/23 02:06:27;;;;;;;5.00;3.70;;;11.70;99.90;;;;;;5100117;28;20417;-60
2024/03/23 02:08:54;;;;;;;6.00;3.60;;;11.60;99.90;;;;;;5095827;28;20177;-60
2024/03/23 02:11:20;;;;;;;8.50;3.97;;;11.60;99.90;;;;;;5089466;28;20480;-61
2024/03/23 02:13:46;;;;;;;5.37;3.87;;;11.60;99.90;;;;;;5100552;28;20756;-60
2024/03/23 02:16:13;;;;;;;4.77;3.70;;;11.60;99.90;;;;;;5091866;28;20170;-60
2024/03/23 02:18:39;;;;;;;6.57;4.30;;;11.60;99.90;;;;;;5092009;28;20428;-60
2024/03/23 02:21:05;;;;;;;8.57;4.40;;;11.60;99.90;;;;;;5097035;28;20424;-60
2024/03/23 02:23:31;;;;;;;5.17;3.63;;;11.50;99.90;;;;;;5090862;28;20386;-60
2024/03/23 02:25:56;;;;;;;5.30;4.03;;;11.50;99.90;;;;;;5073637;28;20420;-61
2024/03/23 02:28:22;;;;;;;6.90;4.47;;;11.50;99.90;;;;;;5097222;28;20476;-61
2024/03/23 02:30:51;;;;;;;5.00;4.43;;;11.50;99.90;;;;;;5092631;28;20277;-60
2024/03/23 02:33:17;;;;;;;6.33;4.27;;;11.40;99.90;;;;;;5096278;28;20201;-60
2024/03/23 02:35:47;;;;;;;4.33;3.90;;;11.40;99.90;;;;;;5090801;28;20503;-61
2024/03/23 02:38:13;;;;;;;5.00;4.10;;;11.30;99.90;;;;;;5091157;28;20473;-61
2024/03/23 02:40:38;;;;;;;5.93;3.80;;;11.30;99.90;;;;;;5098155;28;20419;-61
2024/03/23 02:43:04;;;;;;;5.63;3.67;;;11.30;99.90;;;;;;5103773;28;20639;-61
2024/03/23 02:45:30;;;;;;;5.90;3.57;;;11.30;99.90;;;;;;5094344;28;20182;-61
2024/03/23 02:47:57;;;;;;;6.03;3.60;;;11.30;99.90;;;;;;5086887;28;20417;-60
2024/03/23 02:50:23;;;;;;;3.27;3.07;;;11.30;99.90;;;;;;5106917;28;20455;-60
2024/03/23 02:52:48;;;;;;;6.47;3.53;;;11.20;99.90;;;;;;5098806;28;20428;-61
2024/03/23 02:55:14;;;;;;;5.77;3.20;;;11.20;99.90;;;;;;5090709;28;20909;-61
2024/03/23 02:57:41;;;;;;;5.37;3.50;;;11.20;99.90;;;;;;5094350;28;20180;-60
2024/03/23 03:00:07;;;;;;;6.33;3.30;;;11.20;99.90;;;;;;5090986;28;20453;-60
2024/03/23 03:02:33;;;;;;;5.43;3.63;;;11.20;99.90;;;;;;5091199;28;20410;-60
2024/03/23 03:05:00;;;;;;;5.93;3.77;;;11.20;99.90;;;;;;5104761;28;20426;-61
2024/03/23 03:07:25;;;;;;;3.83;3.50;;;11.20;99.90;;;;;;5093577;28;20429;-61
2024/03/23 03:09:51;;;;;;;4.80;3.30;;;11.20;99.90;;;;;;5081224;28;20425;-61
2024/03/23 03:12:17;;;;;;;9.37;3.90;;;11.10;99.90;;;;;;5103385;28;20199;-61
2024/03/23 03:14:43;;;;;;;4.43;3.50;;;11.20;99.90;;;;;;5079637;28;20177;-61
2024/03/23 03:17:08;;;;;;;4.97;3.37;;;11.10;99.90;;;;;;5102851;28;20251;-61
2024/03/23 03:19:34;;;;;;;5.80;3.07;;;11.10;99.90;;;;;;5086014;28;20182;-61
2024/03/23 03:22:00;;;;;;;4.20;2.80;;;11.00;99.90;;;;;;5094851;28;20219;-61
2024/03/23 03:24:25;;;;;;;4.93;3.60;;;11.00;99.90;;;;;;5102905;28;20183;-61
2024/03/23 03:26:51;;;;;;;4.47;3.43;;;11.00;99.90;;;;;;5108254;28;20172;-60
2024/03/23 03:29:17;;;;;;;4.50;3.57;;;10.90;99.90;;;;;;5101277;28;20176;-61
2024/03/23 03:31:43;;;;;;;3.80;2.87;;;10.90;99.90;;;;;;5100713;28;20202;-61
2024/03/23 03:34:09;;;;;;;5.23;3.23;;;10.90;99.90;;;;;;5114297;28;20207;-60
2024/03/23 03:36:35;;;;;;;3.40;2.70;;;10.80;99.90;;;;;;5101851;28;20459;-60
2024/03/23 03:39:03;;;;;;;6.20;2.83;;;10.90;99.90;;;;;;5084027;28;20417;-60
2024/03/23 03:41:28;;;;;;;7.60;3.10;;;10.90;99.90;;;;;;5111162;28;20186;-60
2024/03/23 03:43:55;;;;;;;4.13;2.93;;;10.80;99.90;;;;;;5105201;28;20427;-60
2024/03/23 03:46:20;;;;;;;2.70;2.50;;;10.80;99.90;;;;;;5103313;28;20175;-60
2024/03/23 03:48:48;;;;;;;5.13;2.57;;;10.80;99.90;;;;;;5115224;28;20447;-59
2024/03/23 03:51:14;;;;;;;3.13;2.83;;;10.80;99.90;;;;;;5098936;28;20280;-62
2024/03/23 03:53:39;;;;;;;8.30;2.83;;;10.80;99.90;;;;;;5094234;28;20856;-60
2024/03/23 03:56:06;;;;;;;3.00;2.50;;;10.80;99.90;;;;;;5094738;28;20412;-60
2024/03/23 03:58:31;;;;;;;5.33;2.90;;;10.80;99.90;;;;;;5095610;28;20174;-59
2024/03/23 04:00:57;;;;;;;3.43;2.93;;;10.90;99.90;;;;;;5103009;28;20417;-59
2024/03/23 04:03:23;;;;;;;5.00;3.40;;;10.90;99.90;;;;;;5093854;28;20185;-59
2024/03/23 04:05:52;;;;;;;6.10;3.70;;;10.90;99.90;;;;;;5093355;28;20185;-60
2024/03/23 04:08:19;;;;;;;4.30;2.60;;;10.90;99.90;;;;;;5093806;28;20178;-59
2024/03/23 04:10:45;;;;;;;3.70;3.40;;;11.00;99.90;;;;;;5093706;28;20441;-60
2024/03/23 04:13:11;;;;;;;9.90;3.40;;;11.00;99.90;;;;;;5092767;28;20424;-60
2024/03/23 04:15:38;;;;;;;5.17;3.17;;;10.90;99.90;;;;;;5096094;28;20418;-60
2024/03/23 04:18:06;;;;;;;3.10;2.90;;;10.90;99.90;;;;;;5075778;28;20749;-62
2024/03/23 04:20:32;;;;;;;5.93;3.37;;;10.90;99.90;;;;;;5087650;28;20526;-60
2024/03/23 04:22:59;;;;;;;4.10;3.60;;;10.80;99.90;;;;;;5095659;28;20417;-60
2024/03/23 04:25:24;;;;;;;8.17;3.30;;;10.80;99.90;;;;;;5095525;28;20417;-60
2024/03/23 04:27:51;;;;;;;9.17;4.10;;;10.90;99.90;;;;;;5096917;28;20419;-60
2024/03/23 04:30:17;;;;;;;3.40;2.90;;;10.90;99.90;;;;;;5096536;28;20209;-60
2024/03/23 04:32:43;;;;;;;5.97;2.90;;;10.90;99.90;;;;;;5095648;28;20448;-60
2024/03/23 04:35:12;;;;;;;5.80;3.10;;;10.90;99.90;;;;;;5097503;28;20799;-60
2024/03/23 04:37:42;;;;;;;3.87;3.30;;;10.90;99.90;;;;;;5086480;28;20975;-60
2024/03/23 04:40:08;;;;;;;7.67;3.50;;;10.90;99.90;;;;;;5099078;28;20799;-60
2024/03/23 04:42:34;;;;;;;7.27;3.47;;;10.90;99.90;;;;;;5095542;28;20414;-60
2024/03/23 04:45:00;;;;;;;6.57;3.43;;;10.90;99.90;;;;;;5112167;28;20464;-60
2024/03/23 04:47:26;;;;;;;4.87;3.70;;;10.90;99.90;;;;;;5093423;28;20419;-60
2024/03/23 04:49:52;;;;;;;3.70;3.40;;;10.90;99.90;;;;;;5114064;28;20398;-60
2024/03/23 04:52:18;;;;;;;4.37;3.50;;;10.90;99.90;;;;;;5112161;28;20410;-60
2024/03/23 04:54:45;;;;;;;4.27;3.40;;;10.90;99.90;;;;;;5109380;28;20679;-60
2024/03/23 04:57:11;;;;;;;10.60;3.57;;;10.80;99.90;;;;;;5110259;28;20405;-60
2024/03/23 04:59:37;;;;;;;3.60;3.30;;;10.90;99.90;;;;;;5098654;28;20463;-60
2024/03/23 05:02:02;;;;;;;5.30;3.20;;;10.80;99.90;;;;;;5110385;28;20481;-60
2024/03/23 05:04:28;;;;;;;3.90;3.20;;;10.80;99.90;;;;;;5111380;28;20164;-60
2024/03/23 05:06:54;;;;;;;5.07;3.37;;;10.80;99.90;;;;;;5095877;28;20187;-60
2024/03/23 05:09:20;;;;;;;7.23;3.37;;;10.70;99.90;;;;;;5105284;28;20257;-60
2024/03/23 05:11:46;;;;;;;4.07;3.70;;;10.70;99.90;;;;;;5104806;28;20204;-60
2024/03/23 05:14:13;;;;;;;9.03;4.23;;;10.70;99.90;;;;;;5093355;28;20406;-60
2024/03/23 05:16:39;;;;;;;4.30;3.60;;;10.70;99.90;;;;;;5106879;28;20639;-60
2024/03/23 05:19:05;;;;;;;4.20;3.47;;;10.70;99.90;;;;;;5111719;28;20499;-60
2024/03/23 05:21:31;;;;;;;5.13;3.70;;;10.60;99.90;;;;;;5094575;28;20513;-60
2024/03/23 05:23:56;;;;;;;4.73;3.90;;;10.60;99.90;;;;;;5109317;28;20189;-60
2024/03/23 05:26:23;;;;;;;7.00;4.10;;;10.60;99.90;;;;;;5076998;28;20191;-60
2024/03/23 05:28:48;;;;;;;7.07;4.10;;;10.50;99.90;;;;;;5110866;28;20183;-60
2024/03/23 05:31:31;;;;;;;5.37;4.23;;;10.50;99.90;;;;;;5102661;28;20448;-60
2024/03/23 05:33:57;;;;;;;7.97;4.83;;;10.40;99.90;;;;;;5105042;28;20429;-60
2024/03/23 05:36:26;;;;;;;6.63;4.50;;;10.40;99.90;;;;;;5110797;28;20499;-62
2024/03/23 05:38:52;;;;;;;6.80;4.80;;;10.40;99.90;;;;;;5094840;28;20781;-62
2024/03/23 05:41:18;;;;;;;6.90;4.43;;;10.40;99.90;;;;;;5111328;28;20425;-60
2024/03/23 05:43:44;;;;;;;8.97;4.90;;;10.40;99.90;;;;;;5092990;28;20180;-60
2024/03/23 05:46:10;;;;;;;7.20;4.30;;;10.40;99.90;;;;;;5113251;28;20406;-60
2024/03/23 05:48:36;;;;;;;5.00;4.60;;;10.40;99.90;;;;;;5112633;28;20178;-60
2024/03/23 05:51:02;;;;;;;11.07;5.53;;;10.40;99.90;;;;;;5110829;28;20645;-60
2024/03/23 05:53:29;;;;;;;11.80;6.50;;;10.40;99.90;;;;;;5110866;28;20463;-60
2024/03/23 05:56:03;;;;;;;8.23;5.60;;;10.40;99.90;;;;;;5064773;28;20865;-60
2024/03/23 05:58:29;;;;;;;5.30;4.80;;;10.30;99.90;;;;;;5101301;28;21026;-60
2024/03/23 06:01:03;;;;;;;9.23;5.43;;;10.40;99.90;;;;;;5103240;28;20417;-61
2024/03/23 06:03:29;;;;;;;8.53;5.43;;;10.40;99.90;;;;;;5091573;28;20448;-60
2024/03/23 06:05:55;;;;;;;5.83;5.30;;;10.40;99.90;;;;;;5072944;28;20823;-62
2024/03/23 06:08:21;;;;;;;6.63;5.57;;;10.40;99.90;;;;;;5085252;28;20545;-60
2024/03/23 06:10:47;;;;;;;8.20;5.23;;;10.40;99.90;;;;;;5091021;28;20200;-61
2024/03/23 06:13:14;;;;;;;7.27;5.13;;;10.30;99.90;;;;;;5095311;28;20433;-60
2024/03/23 06:15:40;;;;;;;8.33;6.07;;;10.20;99.90;;;;;;5091774;28;20536;-61
2024/03/23 06:18:07;;;;;;;5.50;4.90;;;10.20;99.90;;;;;;5073413;28;20476;-61
2024/03/23 06:20:33;;;;;;;6.07;5.17;;;10.20;99.90;;;;;;5090272;28;20917;-61
2024/03/23 06:23:00;;;;;;;10.57;6.10;;;10.20;99.90;;;;;;5075030;28;20474;-61
2024/03/23 06:25:26;;;;;;;7.53;6.00;;;10.30;99.90;;;;;;5074422;28;20565;-63
2024/03/23 06:27:51;;;;;;;7.43;5.80;;;10.30;99.90;;;;;;5106669;28;20497;-63
2024/03/23 06:30:17;;;;;;;7.63;6.30;;;10.30;99.90;;;;;;5104454;28;20221;-73
2024/03/23 06:32:43;;;;;;;7.30;6.23;;;10.30;99.90;;;;;;5092116;28;20288;-60
2024/03/23 06:35:09;;;;;;;8.47;6.47;;;10.30;99.90;;;;;;5110283;28;20224;-60
2024/03/23 06:37:38;;;;;;;8.73;6.30;;;10.30;99.90;;;;;;5108683;28;20243;-60
2024/03/23 06:40:08;;;;;;;10.77;6.13;;;10.20;99.90;;;;;;5106113;28;20567;-60
2024/03/23 06:42:34;;;;;;;11.23;6.30;;;10.20;99.90;;;;;;5100474;28;20441;-60
2024/03/23 06:44:59;;;;;;;8.10;7.10;;;10.10;99.90;;;;;;5092800;28;20462;-61
2024/03/23 06:47:25;;;;;;;10.23;7.50;;;10.10;99.90;;;;;;5107594;28;20172;-60
2024/03/23 06:49:51;;;;;;;10.83;7.97;;;10.10;99.90;;;;;;5099249;28;20800;-60
2024/03/23 06:52:17;;;;;;;8.97;8.07;;;10.10;99.90;;;;;;5100320;28;20209;-60
2024/03/23 06:54:44;;;;;;;9.37;8.47;;;10.00;99.90;;;;;;5104645;28;20877;-63
2024/03/23 06:57:11;;;;;;;11.00;8.27;;;10.10;99.90;;;;;;5103379;28;20194;-60
2024/03/23 06:59:38;;;;;;;9.97;8.97;;;10.10;99.90;;;;;;5107895;28;20417;-61
2024/03/23 07:02:05;;;;;;;13.97;8.73;;;10.10;99.90;;;;;;5115106;28;20401;-61
2024/03/23 07:04:31;;;;;;;10.80;9.27;;;10.10;99.90;;;;;;5111323;28;20817;-60
2024/03/23 07:06:56;;;;;;;11.63;9.70;;;10.00;99.90;;;;;;5088995;28;20461;-60
2024/03/23 07:09:25;;;;;;;14.10;9.17;;;10.10;99.90;;;;;;5100652;28;20192;-60
2024/03/23 07:11:53;;;;;;;11.40;10.20;;;10.00;99.90;;;;;;5094509;28;20233;-60
2024/03/23 07:14:19;;;;;;;16.17;11.90;;;10.10;99.90;;;;;;5106616;28;20485;-60
2024/03/23 07:16:45;;;;;;;12.23;10.40;;;10.00;99.90;;;;;;5103477;28;20418;-60
2024/03/23 07:19:10;;;;;;;13.83;10.10;;;10.10;99.90;;;;;;5115986;28;20175;-60
2024/03/23 07:21:36;;;;;;;13.80;10.10;;;10.10;99.90;;;;;;5113557;28;20224;-60
2024/03/23 07:24:02;;;;;;;13.80;10.40;;;10.20;99.90;;;;;;5114089;28;20182;-60
2024/03/23 07:26:28;;;;;;;16.67;10.93;;;10.20;99.90;;;;;;5115417;28;20174;-65
2024/03/23 07:28:53;;;;;;;13.80;10.73;;;10.10;99.90;;;;;;5100106;28;20287;-60
2024/03/23 07:31:19;;;;;;;17.67;10.70;;;10.20;99.90;;;;;;5106529;28;20869;-60
2024/03/23 07:33:47;;;;;;;12.90;11.50;;;10.20;99.90;;;;;;5099830;28;20198;-60
2024/03/23 07:36:13;;;;;;;22.33;12.27;;;10.30;99.90;;;;;;5101181;28;20507;-60
2024/03/23 07:38:44;;;;;;;16.50;12.47;;;10.30;99.90;;;;;;5112562;28;20397;-63
2024/03/23 07:41:14;;;;;;;16.83;13.20;;;10.30;99.90;;;;;;5095046;28;20551;-60
2024/03/23 07:43:40;;;;;;;18.73;13.80;;;10.30;99.90;;;;;;5098168;28;20504;-60
2024/03/23 07:46:06;;;;;;;18.97;13.47;;;10.30;99.90;;;;;;5096586;28;20424;-60
2024/03/23 07:48:32;;;;;;;18.10;13.20;;;10.40;99.90;;;;;;5095430;28;20532;-60
2024/03/23 07:51:02;;;;;;;17.07;12.87;;;10.40;99.90;;;;;;5096404;28;20509;-61
2024/03/23 07:53:29;;;;;;;23.53;14.67;;;10.50;99.90;;;;;;5094123;28;20415;-61
2024/03/23 07:55:59;;;;;;;20.10;13.97;;;10.60;99.90;;;;;;5101485;28;20721;-61
2024/03/23 07:58:26;;;;;;;21.10;14.30;;;10.60;99.90;;;;;;5093859;28;20510;-62
2024/03/23 08:00:53;;;;;;;20.80;12.50;;;10.70;99.90;;;;;;5090892;28;20398;-61
2024/03/23 08:03:19;;;;;;;24.73;12.27;;;10.70;99.90;;;;;;5112465;28;20413;-62
2024/03/23 08:05:44;;;;;;;22.33;13.83;;;10.80;99.90;;;;;;5098185;28;20422;-62
2024/03/23 08:08:10;;;;;;;17.57;12.60;;;10.90;99.90;;;;;;5100070;28;20489;-59
2024/03/23 08:10:37;;;;;;;18.27;14.30;;;11.00;99.90;;;;;;5095980;28;20195;-67
2024/03/23 08:13:03;;;;;;;17.53;12.70;;;11.10;99.90;;;;;;5094867;28;20440;-61
2024/03/23 08:15:35;;;;;;;15.00;11.23;;;11.20;99.90;;;;;;5107994;28;20423;-60
2024/03/23 08:18:00;;;;;;;21.03;10.10;;;11.30;99.90;;;;;;5077627;28;20812;-60
2024/03/23 08:20:27;;;;;;;14.40;10.57;;;11.30;99.90;;;;;;5093709;28;20436;-66
2024/03/23 08:22:52;;;;;;;14.93;9.83;;;11.40;99.90;;;;;;5106291;28;20613;-61
2024/03/23 08:25:18;;;;;;;10.60;8.70;;;11.40;99.90;;;;;;5092618;28;20509;-64
2024/03/23 08:27:45;;;;;;;14.90;9.70;;;11.50;99.90;;;;;;5095654;28;20177;-65
2024/03/23 08:30:11;;;;;;;9.63;8.10;;;11.70;99.90;;;;;;5093337;28;20406;-65
2024/03/23 08:32:37;;;;;;;14.53;8.67;;;11.90;99.90;;;;;;5090661;28;20446;-64
2024/03/23 08:35:03;;;;;;;16.07;8.40;;;12.00;99.90;;;;;;5092619;28;20442;-66
2024/03/23 08:37:29;;;;;;;9.67;7.10;;;12.30;99.90;;;;;;5095246;28;20466;-65
2024/03/23 08:39:55;;;;;;;9.83;7.27;;;12.50;99.90;;;;;;5113800;28;20853;-65
2024/03/23 08:42:20;;;;;;;7.40;5.77;;;12.70;99.90;;;;;;5098642;28;20181;-65
2024/03/23 08:44:49;;;;;;;12.60;6.43;;;12.80;99.90;;;;;;5101284;28;20266;-65
2024/03/23 08:47:15;;;;;;;10.87;7.00;;;12.90;99.90;;;;;;5111598;28;20187;-65
2024/03/23 08:49:41;;;;;;;14.23;9.03;;;13.10;99.90;;;;;;5090516;28;20432;-65
2024/03/23 08:52:07;;;;;;;7.60;6.63;;;13.20;99.90;;;;;;5092244;28;20489;-65
2024/03/23 08:54:34;;;;;;;10.73;6.57;;;13.40;99.90;;;;;;5093117;28;20870;-66
2024/03/23 08:57:00;;;;;;;8.33;6.10;;;13.50;99.90;;;;;;5108626;28;20428;-65
2024/03/23 08:59:25;;;;;;;13.00;6.50;;;13.50;99.90;;;;;;5110131;28;20772;-65
2024/03/23 09:01:52;;;;;;;6.17;5.17;;;13.50;99.90;;;;;;5098904;28;20431;-63
2024/03/23 09:04:17;;;;;;;7.50;5.87;;;13.40;99.90;;;;;;5112667;28;20186;-62
2024/03/23 09:06:43;;;;;;;6.20;4.60;;;13.30;99.90;;;;;;5102860;28;20421;-62
2024/03/23 09:09:09;;;;;;;6.23;5.17;;;13.00;99.90;;;;;;5094766;28;20179;-62
2024/03/23 09:11:35;;;;;;;12.90;6.53;;;12.90;99.90;;;;;;5111472;28;20210;-62
2024/03/23 09:14:01;;;;;;;8.33;5.13;;;12.70;99.90;;;;;;5111350;28;20188;-65
2024/03/23 09:16:27;;;;;;;9.73;5.43;;;12.60;99.90;;;;;;5098599;28;20420;-62
2024/03/23 09:18:52;;;;;;;8.00;5.90;;;12.50;99.90;;;;;;5113122;28;20401;-62
2024/03/23 09:21:18;;;;;;;303.37;198.43;;;12.40;99.90;;;;;;5104091;28;20224;-64
2024/03/23 09:23:45;;;;;;;49.50;33.77;;;12.30;99.90;;;;;;5100958;28;20880;-62
2024/03/23 09:26:10;;;;;;;13.70;9.03;;;12.40;99.90;;;;;;5092406;28;20455;-62
2024/03/23 09:28:36;;;;;;;6.77;4.53;;;12.40;99.90;;;;;;5090140;28;20415;-61
2024/03/23 09:31:15;;;;;;;5.20;4.07;;;12.10;99.90;;;;;;5092395;28;20266;-61
2024/03/23 09:33:41;;;;;;;5.97;3.07;;;11.70;99.90;;;;;;5089469;28;20396;-67
2024/03/23 09:36:08;;;;;;;3.43;2.50;;;11.30;99.90;;;;;;5092945;28;20742;-61
2024/03/23 09:38:34;;;;;;;51.47;36.70;;;11.00;99.90;;;;;;5092850;28;20422;-61
2024/03/23 09:41:00;;;;;;;22.73;16.47;;;10.70;99.90;;;;;;5090727;28;20435;-61
2024/03/23 09:43:27;;;;;;;3.60;3.30;;;10.50;99.90;;;;;;5092335;28;20197;-62
2024/03/23 09:45:53;;;;;;;3.30;2.83;;;10.30;99.90;;;;;;5091540;28;20447;-61
2024/03/23 09:48:19;;;;;;;3.73;3.10;;;10.10;99.90;;;;;;5091938;28;20171;-61
2024/03/23 09:50:46;;;;;;;2.43;2.30;;;10.10;99.90;;;;;;5091658;28;20445;-62
2024/03/23 09:53:15;;;;;;;3.07;2.33;;;10.10;99.90;;;;;;5090888;28;20434;-61
2024/03/23 09:55:41;;;;;;;2.67;2.40;;;10.10;99.90;;;;;;5090746;28;20745;-61
2024/03/23 09:58:08;;;;;;;3.10;2.90;;;10.20;99.90;;;;;;5091674;28;20413;-59
2024/03/23 10:00:37;;;;;;;3.23;2.77;;;10.20;99.90;;;;;;5075630;28;20458;-59
2024/03/23 10:03:04;;;;;;;5.07;3.00;;;10.20;99.90;;;;;;5101632;28;20546;-60
2024/03/23 10:05:36;;;;;;;3.97;3.20;;;10.30;99.90;;;;;;5098433;28;20515;-59
2024/03/23 10:08:14;;;;;;;6.23;4.07;;;10.50;99.90;;;;;;5094461;28;20449;-59
2024/03/23 10:10:43;;;;;;;5.17;4.23;;;10.70;99.90;;;;;;5106570;28;20453;-59
2024/03/23 10:13:09;;;;;;;6.43;4.50;;;11.00;99.90;;;;;;5106438;28;20422;-59
2024/03/23 10:15:36;;;;;;;6.33;4.43;;;11.30;99.90;;;;;;5111366;28;20470;-59
2024/03/23 10:18:20;;;;;;;5.90;5.07;;;11.60;99.90;;;;;;5102750;28;20164;-62
2024/03/23 10:21:06;;;;;;;5.30;4.77;;;11.90;99.90;;;;;;5088322;28;20418;-68
2024/03/23 10:23:33;;;;;;;8.33;5.20;;;12.30;99.90;;;;;;5092151;28;20496;-62
2024/03/23 10:26:22;;;;;;;6.00;5.50;;;12.60;99.90;;;;;;5103941;28;20412;-61
2024/03/23 10:29:01;;;;;;;6.30;5.43;;;12.90;99.90;;;;;;5110175;28;20829;-62
2024/03/23 10:31:35;;;;;;;9.17;5.83;;;13.20;99.90;;;;;;5076129;28;20786;-60
2024/03/23 10:34:02;;;;;;;6.10;5.50;;;13.50;99.90;;;;;;5096250;28;20419;-62
2024/03/23 10:36:30;;;;;;;6.97;5.73;;;13.80;99.90;;;;;;5096764;28;20863;-62
2024/03/23 10:38:58;;;;;;;5.50;4.97;;;14.00;98.80;;;;;;5114361;28;20475;-62
2024/03/23 10:41:29;;;;;;;5.83;5.33;;;14.20;97.90;;;;;;5114826;28;20427;-62
2024/03/23 10:43:57;;;;;;;8.60;5.90;;;14.20;96.50;;;;;;5113608;28;20423;-62
2024/03/23 10:46:23;;;;;;;7.70;5.70;;;14.20;96.40;;;;;;5114684;28;20398;-62
2024/03/23 10:48:49;;;;;;;21.30;16.00;;;14.00;97.10;;;;;;5100253;28;20490;-65
2024/03/23 10:51:15;;;;;;;95.10;83.50;;;14.10;96.80;;;;;;5103600;28;20629;-62
2024/03/23 10:53:42;;;;;;;97.47;65.33;;;14.10;94.70;;;;;;5099533;28;20419;-62
2024/03/23 10:56:10;;;;;;;8.37;7.23;;;14.40;96.50;;;;;;5103449;28;20425;-65
2024/03/23 10:58:40;;;;;;;5.27;4.40;;;14.60;94.80;;;;;;5099644;28;20754;-64
2024/03/23 11:01:06;;;;;;;5.50;5.03;;;14.70;92.50;;;;;;5105035;28;20433;-64
2024/03/23 11:03:39;;;;;;;7.97;4.20;;;14.80;93.70;;;;;;5095593;28;20401;-64
2024/03/23 11:06:08;;;;;;;6.00;3.93;;;15.10;91.50;;;;;;5093466;28;20168;-64
2024/03/23 11:08:41;;;;;;;8.37;4.93;;;15.20;92.80;;;;;;5104100;28;20432;-64
2024/03/23 11:11:13;;;;;;;5.13;4.63;;;15.30;91.40;;;;;;5113194;28;20462;-64
2024/03/23 11:13:39;;;;;;;3.93;3.60;;;15.50;90.60;;;;;;5115861;28;20416;-64
2024/03/23 11:16:21;;;;;;;4.77;3.90;;;15.30;87.20;;;;;;5113106;28;20758;-61
2024/03/23 11:18:47;;;;;;;4.47;3.57;;;15.10;87.30;;;;;;5100011;28;20210;-65
2024/03/23 11:21:50;;;;;;;5.17;4.30;;;14.70;85.50;;;;;;5096295;28;20503;-61
2024/03/23 11:24:16;;;;;;;4.10;3.53;;;14.20;86.50;;;;;;5115571;28;20164;-61
2024/03/23 11:26:42;;;;;;;3.13;2.80;;;13.60;91.70;;;;;;5107985;28;20422;-62
2024/03/23 11:29:13;;;;;;;3.90;2.40;;;13.10;93.00;;;;;;5098058;28;20230;-61
2024/03/23 11:31:45;;;;;;;135.37;94.03;;;12.70;93.20;;;;;;5098391;28;20453;-61
2024/03/23 11:34:11;;;;;;;397.17;283.67;;;12.20;94.20;;;;;;5097741;28;20406;-62
2024/03/23 11:36:36;;;;;;;12.30;8.47;;;11.80;94.60;;;;;;5114596;28;20457;-61
2024/03/23 11:39:16;;;;;;;2.90;2.70;;;11.70;95.40;;;;;;5113282;28;20229;-63
2024/03/23 11:41:50;;;;;;;2.27;2.10;;;11.60;95.30;;;;;;5113082;28;20206;-63
2024/03/23 11:44:19;;;;;;;2.60;2.40;;;11.60;95.30;;;;;;5115405;28;20394;-63
2024/03/23 11:46:46;;;;;;;2.10;2.00;;;11.40;94.70;;;;;;5104086;28;20446;-64
2024/03/23 11:49:25;;;;;;;2.80;2.57;;;11.40;95.60;;;;;;5094302;28;20422;-64
2024/03/23 11:51:53;;;;;;;3.10;2.87;;;11.70;97.00;;;;;;5093576;28;20446;-70
2024/03/23 11:54:23;;;;;;;3.03;2.83;;;12.00;96.00;;;;;;5111532;28;20437;-64
2024/03/23 11:57:00;;;;;;;4.40;3.37;;;12.30;94.90;;;;;;5081630;28;20739;-68
2024/03/23 11:59:36;;;;;;;3.20;3.00;;;12.60;93.90;;;;;;5094530;28;20426;-64
2024/03/23 12:02:15;;;;;;;4.23;3.30;;;12.90;92.90;;;;;;5073733;28;20456;-66
2024/03/23 12:04:42;;;;;;;3.37;3.17;;;13.10;93.90;;;;;;5099144;28;20436;-65
2024/03/23 12:07:23;;;;;;;3.50;3.20;;;13.30;93.80;;;;;;5093912;28;20475;-65
2024/03/23 12:10:06;;;;;;;2.90;2.70;;;13.60;93.20;;;;;;5090139;28;20750;-69
2024/03/23 12:12:31;;;;;;;3.33;3.13;;;13.90;91.70;;;;;;5074069;28;20496;-63
2024/03/23 12:15:05;;;;;;;3.80;3.57;;;14.20;90.40;;;;;;5091361;28;20547;-62
2024/03/23 12:17:32;;;;;;;3.60;3.40;;;14.40;89.10;;;;;;5091118;28;20211;-62
2024/03/23 12:19:58;;;;;;;3.30;3.20;;;14.50;86.20;;;;;;5097843;28;20424;-62
2024/03/23 12:22:24;;;;;;;3.60;2.93;;;14.50;84.60;;;;;;5102325;28;20485;-61
2024/03/23 12:24:50;;;;;;;2.80;2.67;;;14.50;86.00;;;;;;5064508;28;20904;-66
2024/03/23 12:27:16;;;;;;;3.30;3.10;;;14.50;85.80;;;;;;5089742;28;20431;-61
2024/03/23 12:29:43;;;;;;;2.90;2.80;;;14.50;84.00;;;;;;5112295;28;21698;-62
2024/03/23 12:32:09;;;;;;;3.13;2.93;;;14.50;84.00;;;;;;5094866;28;20651;-61
2024/03/23 12:34:35;;;;;;;3.40;3.20;;;14.40;82.80;;;;;;5114387;28;20488;-62
2024/03/23 12:37:01;;;;;;;7.00;3.40;;;14.30;84.60;;;;;;5112966;28;20479;-62
2024/03/23 12:39:27;;;;;;;3.27;2.97;;;14.10;84.30;;;;;;5114305;28;20204;-62
2024/03/23 12:41:53;;;;;;;3.33;3.03;;;13.90;84.30;;;;;;5113607;28;20176;-65
2024/03/23 12:44:18;;;;;;;142.73;97.03;;;13.60;90.70;;;;;;5113839;28;20407;-61